Troy Mills, IA (52344)

4:05 AM CDT on August 28, 2016 (GMT -0500)
Rural Northern Linn County | | Change Station
Active Advisory: Special Statement

Elev 909 ft 42.27 °N, 91.60 °W | Updated 1 minute ago

Mist
Mist
60.0 °F
Feels Like 60.0 °F
N
0.0
Wind Variable Wind from NW
Gusts 0.0 mph

Today
High -- | Low -- °F
--% Chance of Precip.
Yesterday
High -- | Low -- °F
Precip. -- in
Pressure 30.11 in
Visibility 0.8 miles
Clouds
Dew Point 62 °F
Humidity 99%
Rainfall 0.00 in
Snow Depth Not available.
6:28 AM 7:46 PM
Waning Crescent, 17% visible
METAR KVTI 280855Z AUTO 00000KT 3/4SM BR VV005 17/17 A3011 RMK AO2
Pressure 30.11 in
Visibility 0.8 miles
Clouds
Dew Point 62 °F
Humidity 99%
Rainfall 0.00 in
Snow Depth Not available.
6:28 AM 7:46 PM
Waning Crescent, 17% visible
METAR KVTI 280855Z AUTO 00000KT 3/4SM BR VV005 17/17 A3011 RMK AO2

10-Day Weather Forecast

Almanac

Astronomy

Aug. 28, 2016 Rise Set
Actual Time
Civil Twilight
Nautical Twilight
Astronomical Twilight
Moon
Length of Visible Light
Length of Day
Tomorrow will be .
, % of the Moon is Illuminated

Today's Extremes

State Highs State Lows

Community

WunderPhotos

Upload Photos

1,935,540 photos uploaded!

WunderBlog® & News

Nearby

Air Quality

  Air Quality AQ Index Pollutant
Not available.

Snow Depth

Station Depth Elevation

Earthquake Activity

City Distance Mag. Time & Date
Minimum magnitude displayed is 2.5.

Coastal Water Temperatures

Place Temperature

Stations

Nearby Weather Stations

Station Location Temp. Windchill Dew Point Humidity Wind Precip. Elev Updated Type
                   

Watches & Warnings

Special Statement
Issued: 3:56 AM CDT Aug. 28, 2016 – National Weather Service

... Local dense fog this morning...

Pockets of local dense fog with visibilities of one quarter of a
mile or less will be possible this morning through at least 9 am.
If you are traveling this morning and encounter dense fog... be
sure to use your low beam headlights... slow down and be sure to
plan for more time to reach your destination safely. A dense fog
advisory may be needed if conditions become more widespread.


Gibbs